createdAt,value
2022-09-17T00:01:49.213Z,11.10
2022-09-17T00:03:52.532Z,11.10
2022-09-17T00:06:01.432Z,11.10
2022-09-17T00:08:04.853Z,11.00
2022-09-17T00:10:06.588Z,11.00
2022-09-17T00:12:08.183Z,11.00
2022-09-17T00:14:14.261Z,11.00
2022-09-17T00:16:21.616Z,11.00
2022-09-17T00:18:23.251Z,10.90
2022-09-17T00:20:25.990Z,10.90
2022-09-17T00:22:27.602Z,10.90
2022-09-17T00:24:29.174Z,11.00
2022-09-17T00:26:31.962Z,10.90
2022-09-17T00:28:33.567Z,11.00
2022-09-17T00:30:35.303Z,11.00
2022-09-17T00:32:36.885Z,11.00
2022-09-17T00:34:38.518Z,10.90
2022-09-17T00:36:40.104Z,10.90
2022-09-17T00:38:41.706Z,10.90
2022-09-17T00:40:43.414Z,10.90
2022-09-17T00:42:45.372Z,11.00
2022-09-17T00:44:54.621Z,11.00
2022-09-17T00:46:56.291Z,11.00
2022-09-17T00:48:59.078Z,11.00
2022-09-17T00:51:01.592Z,10.90
2022-09-17T00:53:14.098Z,11.00
2022-09-17T00:55:24.982Z,11.00
2022-09-17T00:57:26.961Z,10.90
2022-09-17T00:59:28.716Z,11.00
2022-09-17T01:01:30.796Z,11.00
2022-09-17T01:03:33.346Z,11.00
2022-09-17T01:05:44.422Z,10.90
2022-09-17T01:07:52.483Z,11.00
2022-09-17T01:09:56.861Z,11.00
2022-09-17T01:12:11.013Z,10.90
2022-09-17T01:14:18.904Z,10.90
2022-09-17T01:16:27.737Z,10.90
2022-09-17T01:18:57.154Z,10.90
2022-09-17T01:21:17.817Z,10.80
2022-09-17T01:23:38.376Z,10.80
2022-09-17T01:25:53.332Z,10.70
2022-09-17T01:27:58.073Z,10.70
2022-09-17T01:30:14.220Z,10.70
2022-09-17T01:32:24.352Z,10.70
2022-09-17T01:34:28.936Z,10.70
2022-09-17T01:36:45.397Z,10.70
2022-09-17T01:38:54.424Z,10.70
2022-09-17T01:40:56.326Z,10.60
2022-09-17T01:43:30.128Z,10.60
2022-09-17T01:45:47.178Z,10.50
2022-09-17T01:47:58.466Z,10.50
2022-09-17T01:50:02.889Z,10.40
2022-09-17T01:52:05.323Z,10.40
2022-09-17T01:54:27.144Z,10.40
2022-09-17T01:56:33.380Z,10.40
2022-09-17T01:58:42.672Z,10.50
2022-09-17T02:00:47.850Z,10.60
2022-09-17T02:02:55.638Z,10.60
2022-09-17T02:05:03.318Z,10.60
2022-09-17T02:07:07.540Z,10.60
2022-09-17T02:09:16.294Z,10.60
2022-09-17T02:11:18.672Z,10.60
2022-09-17T02:13:22.049Z,10.60
2022-09-17T02:15:26.930Z,10.60
2022-09-17T02:17:31.936Z,10.70
2022-09-17T02:19:36.496Z,10.80
2022-09-17T02:21:46.668Z,10.80
2022-09-17T02:24:08.842Z,10.80
2022-09-17T02:26:12.343Z,10.70
2022-09-17T02:28:18.291Z,10.70
2022-09-17T02:30:20.052Z,10.70
2022-09-17T02:32:21.722Z,10.70
2022-09-17T02:34:26.752Z,10.70
2022-09-17T02:36:28.777Z,10.60
2022-09-17T02:38:31.149Z,10.60
2022-09-17T02:40:36.204Z,10.50
2022-09-17T02:42:58.085Z,10.50
2022-09-17T02:45:19.620Z,10.40
2022-09-17T02:47:34.539Z,10.40
2022-09-17T02:49:45.285Z,10.40
2022-09-17T02:51:46.843Z,10.50
2022-09-17T02:53:48.489Z,10.50
2022-09-17T02:55:51.079Z,10.50
2022-09-17T02:58:05.620Z,10.50
2022-09-17T03:00:33.628Z,10.60
2022-09-17T03:02:43.773Z,10.60
2022-09-17T03:04:47.557Z,10.50
2022-09-17T03:06:51.752Z,10.50
2022-09-17T03:08:53.328Z,10.60
2022-09-17T03:10:54.909Z,10.60
2022-09-17T03:12:56.481Z,10.50
2022-09-17T03:14:58.121Z,10.50
2022-09-17T03:16:59.685Z,10.50
2022-09-17T03:19:01.290Z,10.50
2022-09-17T03:21:02.916Z,10.40
2022-09-17T03:23:04.753Z,10.40
2022-09-17T03:25:06.519Z,10.40
2022-09-17T03:27:08.164Z,10.40
2022-09-17T03:29:09.723Z,10.40
2022-09-17T03:31:11.561Z,10.40
2022-09-17T03:33:13.499Z,10.40
2022-09-17T03:35:15.190Z,10.40
2022-09-17T03:37:16.937Z,10.50
2022-09-17T03:39:18.546Z,10.40
2022-09-17T03:41:20.353Z,10.40
2022-09-17T03:43:21.927Z,10.30
2022-09-17T03:45:23.557Z,10.30
2022-09-17T03:47:25.124Z,10.30
2022-09-17T03:49:26.802Z,10.30
2022-09-17T03:51:28.387Z,10.30
2022-09-17T03:53:29.966Z,10.30
2022-09-17T03:55:31.565Z,10.30
2022-09-17T03:57:33.161Z,10.30
2022-09-17T03:59:34.772Z,10.30
2022-09-17T04:01:36.481Z,10.30
2022-09-17T04:03:38.189Z,10.30
2022-09-17T04:05:39.827Z,10.30
2022-09-17T04:07:41.504Z,10.40
2022-09-17T04:09:43.127Z,10.30
2022-09-17T04:11:44.679Z,10.30
2022-09-17T04:13:46.298Z,10.20
2022-09-17T04:15:48.150Z,10.20
2022-09-17T04:17:49.817Z,10.20
2022-09-17T04:19:51.473Z,10.10
2022-09-17T04:21:53.051Z,10.10
2022-09-17T04:23:54.647Z,10.10
2022-09-17T04:25:56.286Z,10.10
2022-09-17T04:27:57.849Z,10.10
2022-09-17T04:29:59.475Z,10.20
2022-09-17T04:32:01.139Z,10.30
2022-09-17T04:34:02.735Z,10.20
2022-09-17T04:36:04.373Z,10.20
2022-09-17T04:38:06.135Z,10.20
2022-09-17T04:40:08.583Z,10.20
2022-09-17T04:42:10.314Z,10.10
2022-09-17T04:44:11.892Z,10.20
2022-09-17T04:46:14.225Z,10.30
2022-09-17T04:48:16.116Z,10.30
2022-09-17T04:50:18.565Z,10.40
2022-09-17T04:52:20.154Z,10.40
2022-09-17T04:54:24.157Z,10.40
2022-09-17T04:56:25.914Z,10.40
2022-09-17T04:58:27.718Z,10.40
2022-09-17T05:00:29.335Z,10.40
2022-09-17T05:02:30.965Z,10.50
2022-09-17T05:04:32.618Z,10.50
2022-09-17T05:06:34.215Z,10.40
2022-09-17T05:08:35.865Z,10.40
2022-09-17T05:10:37.487Z,10.40
2022-09-17T05:12:39.105Z,10.40
2022-09-17T05:14:40.683Z,10.50
2022-09-17T05:16:42.267Z,10.40
2022-09-17T05:18:43.902Z,10.50
2022-09-17T05:20:45.532Z,10.50
2022-09-17T05:22:53.601Z,10.40
2022-09-17T05:24:55.220Z,10.50
2022-09-17T05:26:56.884Z,10.50
2022-09-17T05:28:58.591Z,10.40
2022-09-17T05:31:00.830Z,10.40
2022-09-17T05:33:03.877Z,10.30
2022-09-17T05:35:06.117Z,10.30
2022-09-17T05:37:09.984Z,10.40
2022-09-17T05:39:11.567Z,10.40
2022-09-17T05:41:13.201Z,10.40
2022-09-17T05:43:14.879Z,10.50
2022-09-17T05:45:16.451Z,10.40
2022-09-17T05:47:18.080Z,10.40
2022-09-17T05:49:19.735Z,10.50
2022-09-17T05:51:21.341Z,10.60
2022-09-17T05:53:23.121Z,10.50
2022-09-17T05:55:24.743Z,10.50
2022-09-17T05:57:28.941Z,10.40
2022-09-17T05:59:30.898Z,10.40
2022-09-17T06:01:32.520Z,10.40
2022-09-17T06:03:34.117Z,10.40
2022-09-17T06:05:35.706Z,10.40
2022-09-17T06:07:38.077Z,10.50
2022-09-17T06:09:40.963Z,10.50
2022-09-17T06:11:42.598Z,10.60
2022-09-17T06:13:44.327Z,10.70
2022-09-17T06:15:55.140Z,10.80
2022-09-17T06:17:57.039Z,10.80
2022-09-17T06:19:58.869Z,10.70
2022-09-17T06:22:00.930Z,10.70
2022-09-17T06:24:02.829Z,10.70
2022-09-17T06:26:05.322Z,10.80
2022-09-17T06:28:06.918Z,10.90
2022-09-17T06:30:08.634Z,10.80
2022-09-17T06:32:12.786Z,11.00
2022-09-17T06:34:14.464Z,11.00
2022-09-17T06:36:16.067Z,10.90
2022-09-17T06:38:18.068Z,10.90
2022-09-17T06:40:19.859Z,11.00
2022-09-17T06:42:21.646Z,11.10
2022-09-17T06:44:23.267Z,11.00
2022-09-17T06:46:24.899Z,11.00
2022-09-17T06:48:30.054Z,11.00
2022-09-17T06:50:31.744Z,10.90
2022-09-17T06:52:33.360Z,10.90
2022-09-17T06:54:34.967Z,11.00
2022-09-17T06:56:37.061Z,10.90
2022-09-17T06:58:38.777Z,10.90
2022-09-17T07:00:40.695Z,10.90
2022-09-17T07:02:42.365Z,10.90
2022-09-17T07:04:43.930Z,10.90
2022-09-17T07:06:45.673Z,10.80
2022-09-17T07:08:47.560Z,10.80
2022-09-17T07:10:49.312Z,10.80
2022-09-17T07:12:50.988Z,10.90
2022-09-17T07:14:52.767Z,10.80
2022-09-17T07:16:54.402Z,10.80
2022-09-17T07:18:56.001Z,10.90
2022-09-17T07:20:58.573Z,10.90
2022-09-17T07:23:00.175Z,11.00
2022-09-17T07:25:01.867Z,10.90
2022-09-17T07:27:03.539Z,11.00
2022-09-17T07:29:05.184Z,10.90
2022-09-17T07:31:09.349Z,10.90
2022-09-17T07:33:12.944Z,10.90
2022-09-17T07:35:14.588Z,10.90
2022-09-17T07:37:16.540Z,10.80
2022-09-17T07:39:18.165Z,10.70
2022-09-17T07:41:19.913Z,10.60
2022-09-17T07:43:21.500Z,10.50
2022-09-17T07:45:23.101Z,10.40
2022-09-17T07:47:24.710Z,10.40
2022-09-17T07:49:26.289Z,10.40
2022-09-17T07:51:28.566Z,10.30
2022-09-17T07:53:30.147Z,10.30
2022-09-17T07:55:31.851Z,10.50
2022-09-17T07:57:33.479Z,10.50
2022-09-17T07:59:35.090Z,10.50
2022-09-17T08:01:36.867Z,10.50
2022-09-17T08:03:39.634Z,10.50
2022-09-17T08:05:41.288Z,10.50
2022-09-17T08:07:42.906Z,10.40
2022-09-17T08:09:44.543Z,10.30
2022-09-17T08:12:01.623Z,10.30
2022-09-17T08:14:03.795Z,10.40
2022-09-17T08:16:06.892Z,10.20
2022-09-17T08:18:08.603Z,10.20
2022-09-17T08:20:10.357Z,10.40
2022-09-17T08:22:11.986Z,10.60
2022-09-17T08:24:13.637Z,10.60
2022-09-17T08:26:16.482Z,10.60
2022-09-17T08:28:18.253Z,10.70
2022-09-17T08:30:19.817Z,10.70
2022-09-17T08:32:21.407Z,10.70
2022-09-17T08:34:22.996Z,10.90
2022-09-17T08:36:26.223Z,10.80
2022-09-17T08:38:28.280Z,10.80
2022-09-17T08:40:30.049Z,10.90
2022-09-17T08:42:39.671Z,10.90
2022-09-17T08:44:42.534Z,11.10
2022-09-17T08:46:48.589Z,11.00
2022-09-17T08:48:56.342Z,11.00
2022-09-17T08:51:02.510Z,11.10
2022-09-17T08:53:26.067Z,11.60
2022-09-17T08:55:33.853Z,11.70
2022-09-17T08:57:46.592Z,11.80
2022-09-17T08:59:48.166Z,11.90
2022-09-17T09:01:59.378Z,11.70
2022-09-17T09:04:03.045Z,11.80
2022-09-17T09:06:09.902Z,12.00
2022-09-17T09:08:19.244Z,12.20
2022-09-17T09:10:25.358Z,12.10
2022-09-17T09:12:28.525Z,11.90
2022-09-17T09:14:35.949Z,11.80
2022-09-17T09:16:39.946Z,11.90
2022-09-17T09:18:42.311Z,12.00
2022-09-17T09:20:55.487Z,12.30
2022-09-17T09:23:01.926Z,12.50
2022-09-17T09:25:10.119Z,12.60
2022-09-17T09:27:16.911Z,12.40
2022-09-17T09:29:37.707Z,12.40
2022-09-17T09:31:45.445Z,12.30
2022-09-17T09:33:48.174Z,12.30
2022-09-17T09:35:50.066Z,12.20
2022-09-17T09:37:55.339Z,12.10
2022-09-17T09:40:01.230Z,12.20
2022-09-17T09:42:10.654Z,12.40
2022-09-17T09:44:13.724Z,12.40
2022-09-17T09:46:34.286Z,12.50
2022-09-17T09:48:35.896Z,12.60
2022-09-17T09:51:05.614Z,12.80
2022-09-17T09:53:19.227Z,12.90
2022-09-17T09:55:36.430Z,13.00
2022-09-17T09:57:43.269Z,12.80
2022-09-17T09:59:44.981Z,13.00
2022-09-17T10:01:46.969Z,12.70
2022-09-17T10:03:51.864Z,12.60
2022-09-17T10:05:58.625Z,12.60
2022-09-17T10:08:00.463Z,12.40
2022-09-17T10:10:08.753Z,12.50
2022-09-17T10:12:16.617Z,12.50
2022-09-17T10:14:24.540Z,12.30
2022-09-17T10:16:27.633Z,12.40
2022-09-17T10:18:29.314Z,12.50
2022-09-17T10:20:30.887Z,12.60
2022-09-17T10:22:34.011Z,12.60
2022-09-17T10:24:36.379Z,12.60
2022-09-17T10:26:38.008Z,12.80
2022-09-17T10:28:45.234Z,12.90
2022-09-17T10:31:00.136Z,13.00
2022-09-17T10:33:13.754Z,13.10
2022-09-17T10:35:15.297Z,13.00
2022-09-17T10:37:32.912Z,12.90
2022-09-17T10:39:44.305Z,12.90
2022-09-17T10:41:55.731Z,13.30
2022-09-17T10:44:16.755Z,13.80
2022-09-17T10:46:29.198Z,13.90
2022-09-17T10:48:32.977Z,14.20
2022-09-17T10:50:35.638Z,14.00
2022-09-17T10:52:38.700Z,13.90
2022-09-17T10:54:59.183Z,14.00
2022-09-17T10:57:01.398Z,14.20
2022-09-17T10:59:21.784Z,14.30
2022-09-17T11:01:59.303Z,14.60
2022-09-17T11:04:10.130Z,14.50
2022-09-17T11:06:15.420Z,14.70
2022-09-17T11:08:22.272Z,15.10
2022-09-17T11:10:44.347Z,15.60
2022-09-17T11:12:56.279Z,15.50
2022-09-17T11:15:06.341Z,15.60
2022-09-17T11:17:14.070Z,15.70
2022-09-17T11:19:38.329Z,16.00
2022-09-17T11:21:49.108Z,16.00
2022-09-17T11:23:53.687Z,15.50
2022-09-17T11:26:08.443Z,15.30
2022-09-17T11:28:10.042Z,15.20
2022-09-17T11:30:19.770Z,15.90
2022-09-17T11:32:30.776Z,15.60
2022-09-17T11:34:41.641Z,15.70
2022-09-17T11:36:50.813Z,15.80
2022-09-17T11:38:53.402Z,15.00
2022-09-17T11:41:01.365Z,15.10
2022-09-17T11:43:07.431Z,15.00
2022-09-17T11:45:18.827Z,15.20
2022-09-17T11:47:23.879Z,14.90
2022-09-17T11:49:25.688Z,14.70
2022-09-17T11:51:36.947Z,14.90
2022-09-17T11:53:45.641Z,15.00
2022-09-17T11:55:47.196Z,15.00
2022-09-17T11:57:54.188Z,15.20
2022-09-17T12:00:05.653Z,15.10
2022-09-17T12:02:25.934Z,15.00
2022-09-17T12:04:27.875Z,16.00
2022-09-17T12:06:37.038Z,16.30
2022-09-17T12:08:38.603Z,16.40
2022-09-17T12:10:43.039Z,15.90
2022-09-17T12:12:50.594Z,15.40
2022-09-17T12:14:58.593Z,15.00
2022-09-17T12:17:01.930Z,14.60
2022-09-17T12:19:11.237Z,14.60
2022-09-17T12:21:15.169Z,14.80
2022-09-17T12:23:23.124Z,15.10
2022-09-17T12:25:26.250Z,14.90
2022-09-17T12:27:43.220Z,14.50
2022-09-17T12:30:05.828Z,14.40
2022-09-17T12:32:25.498Z,14.30
2022-09-17T12:34:40.402Z,14.30
2022-09-17T12:36:53.801Z,14.00
2022-09-17T12:39:04.420Z,13.80
2022-09-17T12:41:24.657Z,13.60
2022-09-17T12:43:47.470Z,13.20
2022-09-17T12:46:11.229Z,13.20
2022-09-17T12:48:15.630Z,13.40
2022-09-17T12:50:36.073Z,13.40
2022-09-17T12:52:37.639Z,14.40
2022-09-17T12:54:44.475Z,15.80
2022-09-17T12:56:54.279Z,15.80
2022-09-17T12:59:08.176Z,14.50
2022-09-17T13:01:22.052Z,15.20
2022-09-17T13:03:23.685Z,14.80
2022-09-17T13:05:43.705Z,14.60
2022-09-17T13:07:51.740Z,14.50
2022-09-17T13:09:53.299Z,14.70
2022-09-17T13:12:04.530Z,14.00
2022-09-17T13:14:19.835Z,13.70
2022-09-17T13:16:21.421Z,13.40
2022-09-17T13:18:59.312Z,13.00
2022-09-17T13:21:30.223Z,12.90
2022-09-17T13:23:38.047Z,12.80
2022-09-17T13:25:50.752Z,12.70
2022-09-17T13:28:06.612Z,12.70
2022-09-17T13:30:09.843Z,12.60
2022-09-17T13:32:30.216Z,12.40
2022-09-17T13:34:32.031Z,12.50
2022-09-17T13:36:38.480Z,12.50
2022-09-17T13:38:41.806Z,13.00
2022-09-17T13:40:43.935Z,12.80
2022-09-17T13:42:47.958Z,12.90
2022-09-17T13:45:01.883Z,12.80
2022-09-17T13:47:15.698Z,12.90
2022-09-17T13:49:17.372Z,13.00
2022-09-17T13:51:30.775Z,13.40
2022-09-17T13:53:32.509Z,13.70
2022-09-17T13:55:36.813Z,14.20
2022-09-17T13:57:49.791Z,15.60
2022-09-17T13:59:53.868Z,17.30
2022-09-17T14:01:57.289Z,17.70
2022-09-17T14:03:59.089Z,16.70
2022-09-17T14:06:18.635Z,16.00
2022-09-17T14:08:31.031Z,16.10
2022-09-17T14:10:40.477Z,16.00
2022-09-17T14:12:44.477Z,17.00
2022-09-17T14:14:51.140Z,18.20
2022-09-17T14:16:52.817Z,17.30
2022-09-17T14:19:13.016Z,15.80
2022-09-17T14:21:25.233Z,15.50
2022-09-17T14:23:26.832Z,15.90
2022-09-17T14:25:43.136Z,16.30
2022-09-17T14:27:47.913Z,17.80
2022-09-17T14:30:08.225Z,17.20
2022-09-17T14:32:15.810Z,17.30
2022-09-17T14:34:21.880Z,17.20
2022-09-17T14:36:23.792Z,15.70
2022-09-17T14:38:44.369Z,15.80
2022-09-17T14:40:47.442Z,16.90
2022-09-17T14:42:50.787Z,16.40
2022-09-17T14:45:00.447Z,16.40
2022-09-17T14:47:03.770Z,16.80
2022-09-17T14:49:15.125Z,17.10
2022-09-17T14:51:22.085Z,17.30
2022-09-17T14:53:24.023Z,16.60
2022-09-17T14:55:29.649Z,15.40
2022-09-17T14:57:31.253Z,14.70
2022-09-17T14:59:52.943Z,14.90
2022-09-17T15:01:54.601Z,15.80
2022-09-17T15:04:14.671Z,16.40
2022-09-17T15:06:23.191Z,16.00
2022-09-17T15:08:25.907Z,15.10
2022-09-17T15:10:27.482Z,15.10
2022-09-17T15:12:29.666Z,15.00
2022-09-17T15:14:33.515Z,14.80
2022-09-17T15:16:36.593Z,14.50
2022-09-17T15:18:40.428Z,14.50
2022-09-17T15:20:42.353Z,15.00
2022-09-17T15:22:45.571Z,15.90
2022-09-17T15:24:56.323Z,16.50
2022-09-17T15:26:59.576Z,15.50
2022-09-17T15:29:02.387Z,14.60
2022-09-17T15:31:05.315Z,14.20
2022-09-17T15:33:09.517Z,14.20
2022-09-17T15:35:11.142Z,13.90
2022-09-17T15:37:20.594Z,13.90
2022-09-17T15:39:29.214Z,13.90
2022-09-17T15:41:34.709Z,13.90
2022-09-17T15:43:38.347Z,13.90
2022-09-17T15:45:42.238Z,13.80
2022-09-17T15:47:52.716Z,13.90
2022-09-17T15:50:07.058Z,13.90
2022-09-17T15:52:34.146Z,13.90
2022-09-17T15:54:37.363Z,13.90
2022-09-17T15:56:40.117Z,13.90
2022-09-17T15:58:41.734Z,13.90
2022-09-17T16:00:45.886Z,13.80
2022-09-17T16:02:47.914Z,13.80
2022-09-17T16:04:52.734Z,13.90
2022-09-17T16:07:02.636Z,13.90
2022-09-17T16:09:24.199Z,15.70
2022-09-17T16:11:26.880Z,15.50
2022-09-17T16:13:28.835Z,14.60
2022-09-17T16:15:30.455Z,14.10
2022-09-17T16:17:34.303Z,13.90
2022-09-17T16:19:36.731Z,13.80
2022-09-17T16:21:38.320Z,13.80
2022-09-17T16:23:40.179Z,13.80
2022-09-17T16:25:42.114Z,13.80
2022-09-17T16:27:49.989Z,13.70
2022-09-17T16:29:52.580Z,13.80
2022-09-17T16:31:54.451Z,13.70
2022-09-17T16:33:56.193Z,14.00
2022-09-17T16:35:58.324Z,14.10
2022-09-17T16:38:00.017Z,14.10
2022-09-17T16:40:02.218Z,14.10
2022-09-17T16:42:03.994Z,14.20
2022-09-17T16:44:05.667Z,14.40
2022-09-17T16:46:08.767Z,14.30
2022-09-17T16:48:10.588Z,14.30
2022-09-17T16:50:13.584Z,14.20
2022-09-17T16:52:15.206Z,14.10
2022-09-17T16:54:16.780Z,13.90
2022-09-17T16:56:18.403Z,13.90
2022-09-17T16:58:19.985Z,13.80
2022-09-17T17:00:22.576Z,13.80
2022-09-17T17:02:24.405Z,13.80
2022-09-17T17:04:26.014Z,13.80
2022-09-17T17:06:27.920Z,13.80
2022-09-17T17:08:31.527Z,13.70
2022-09-17T17:10:33.584Z,13.70
2022-09-17T17:12:36.426Z,13.70
2022-09-17T17:14:38.151Z,13.60
2022-09-17T17:16:40.924Z,13.60
2022-09-17T17:18:43.896Z,13.60
2022-09-17T17:20:45.517Z,13.60
2022-09-17T17:22:47.182Z,13.60
2022-09-17T17:24:48.764Z,13.50
2022-09-17T17:26:50.399Z,13.50
2022-09-17T17:28:52.589Z,13.40
2022-09-17T17:30:54.270Z,13.40
2022-09-17T17:32:55.948Z,13.30
2022-09-17T17:34:58.180Z,13.20
2022-09-17T17:36:59.763Z,13.00
2022-09-17T17:39:01.388Z,12.80
2022-09-17T17:41:04.176Z,12.60
2022-09-17T17:43:05.824Z,12.60
2022-09-17T17:45:07.871Z,12.60
2022-09-17T17:47:09.558Z,12.60
2022-09-17T17:49:11.190Z,12.50
2022-09-17T17:51:12.792Z,12.40
2022-09-17T17:53:14.450Z,12.30
2022-09-17T17:55:16.262Z,12.30
2022-09-17T17:57:17.871Z,12.20
2022-09-17T17:59:19.502Z,12.00
2022-09-17T18:01:22.307Z,11.80
2022-09-17T18:03:26.907Z,11.90
2022-09-17T18:05:28.536Z,11.80
2022-09-17T18:07:30.402Z,11.80
2022-09-17T18:09:32.033Z,11.80
2022-09-17T18:11:34.578Z,11.80
2022-09-17T18:13:37.182Z,11.80
2022-09-17T18:15:38.794Z,11.70
2022-09-17T18:17:40.373Z,11.60
2022-09-17T18:19:41.963Z,11.60
2022-09-17T18:21:43.558Z,11.70
2022-09-17T18:23:45.740Z,11.80
2022-09-17T18:25:54.433Z,11.80
2022-09-17T18:27:56.093Z,11.80
2022-09-17T18:29:57.810Z,11.80
2022-09-17T18:31:59.427Z,11.80
2022-09-17T18:34:05.703Z,11.80
2022-09-17T18:36:07.601Z,11.80
2022-09-17T18:38:09.290Z,11.70
2022-09-17T18:40:10.976Z,11.80
2022-09-17T18:42:12.747Z,11.60
2022-09-17T18:44:14.330Z,11.60
2022-09-17T18:46:16.127Z,11.50
2022-09-17T18:48:17.815Z,11.50
2022-09-17T18:50:19.615Z,11.50
2022-09-17T18:52:21.256Z,11.50
2022-09-17T18:54:23.063Z,11.50
2022-09-17T18:56:29.298Z,11.40
2022-09-17T18:58:30.959Z,11.40
2022-09-17T19:00:32.590Z,11.40
2022-09-17T19:02:34.327Z,11.40
2022-09-17T19:04:35.953Z,11.40
2022-09-17T19:06:37.629Z,11.40
2022-09-17T19:08:39.390Z,11.40
2022-09-17T19:10:40.952Z,11.50
2022-09-17T19:12:42.623Z,11.60
2022-09-17T19:14:44.223Z,11.60
2022-09-17T19:16:45.841Z,11.40
2022-09-17T19:18:47.411Z,11.40
2022-09-17T19:20:49.047Z,11.30
2022-09-17T19:22:50.854Z,11.40
2022-09-17T19:24:52.628Z,11.30
2022-09-17T19:26:54.267Z,11.30
2022-09-17T19:28:58.544Z,11.30
2022-09-17T19:31:03.322Z,10.90
2022-09-17T19:33:04.904Z,10.60
2022-09-17T19:35:08.529Z,10.50
2022-09-17T19:37:10.444Z,10.40
2022-09-17T19:39:12.117Z,10.40
2022-09-17T19:41:14.961Z,10.40
2022-09-17T19:43:18.340Z,10.30
2022-09-17T19:45:20.818Z,10.30
2022-09-17T19:47:22.408Z,10.30
2022-09-17T19:49:24.152Z,10.40
2022-09-17T19:51:26.476Z,10.40
2022-09-17T19:53:28.317Z,10.30
2022-09-17T19:55:30.130Z,10.30
2022-09-17T19:57:31.723Z,10.30
2022-09-17T19:59:33.304Z,10.20
2022-09-17T20:01:35.086Z,10.20
2022-09-17T20:03:40.903Z,10.10
2022-09-17T20:05:42.547Z,10.10
2022-09-17T20:07:45.846Z,10.10
2022-09-17T20:09:48.420Z,10.00
2022-09-17T20:11:50.049Z,10.00
2022-09-17T20:13:58.618Z,10.10
2022-09-17T20:16:11.271Z,9.90
2022-09-17T20:18:12.919Z,9.90
2022-09-17T20:20:14.603Z,9.90
2022-09-17T20:22:16.204Z,10.00
2022-09-17T20:24:17.838Z,10.00
2022-09-17T20:26:19.746Z,10.10
2022-09-17T20:28:21.339Z,10.20
2022-09-17T20:30:23.021Z,10.20
2022-09-17T20:32:24.588Z,10.20
2022-09-17T20:34:26.152Z,10.30
2022-09-17T20:36:30.948Z,10.30
2022-09-17T20:39:10.012Z,10.20
2022-09-17T20:41:00.679Z,10.30
2022-09-17T20:43:02.264Z,10.40
2022-09-17T20:45:04.056Z,10.40
2022-09-17T20:47:05.788Z,10.40
2022-09-17T20:49:07.535Z,10.40
2022-09-17T20:51:09.112Z,10.40
2022-09-17T20:53:10.744Z,10.30
2022-09-17T20:55:12.354Z,10.30
2022-09-17T20:57:13.916Z,10.10
2022-09-17T20:59:20.658Z,10.20
2022-09-17T21:01:32.142Z,10.30
2022-09-17T21:03:34.363Z,10.30
2022-09-17T21:05:37.432Z,10.40
2022-09-17T21:07:39.471Z,10.40
2022-09-17T21:09:42.058Z,10.40
2022-09-17T21:11:44.646Z,10.50
2022-09-17T21:13:46.328Z,10.50
2022-09-17T21:15:55.183Z,10.50
2022-09-17T21:17:56.799Z,10.50
2022-09-17T21:19:58.469Z,10.30
2022-09-17T21:22:00.107Z,10.30
2022-09-17T21:24:02.600Z,10.30
2022-09-17T21:26:05.658Z,10.30
2022-09-17T21:28:07.242Z,10.30
2022-09-17T21:30:09.712Z,10.30
2022-09-17T21:32:11.288Z,10.30
2022-09-17T21:34:13.434Z,10.40
2022-09-17T21:36:16.017Z,10.20
2022-09-17T21:38:20.880Z,10.30
2022-09-17T21:40:23.024Z,10.30
2022-09-17T21:42:24.633Z,10.30
2022-09-17T21:44:26.212Z,10.40
2022-09-17T21:46:29.217Z,10.20
2022-09-17T21:53:45.365Z,10.20
2022-09-17T21:55:47.380Z,10.30
2022-09-17T21:57:49.636Z,10.40
2022-09-17T21:59:51.245Z,10.40
2022-09-17T22:01:54.533Z,10.40
2022-09-17T22:03:57.544Z,10.50
2022-09-17T22:06:03.404Z,10.60
2022-09-17T22:08:05.046Z,10.60
2022-09-17T22:10:07.414Z,10.50
2022-09-17T22:12:11.217Z,10.60
2022-09-17T22:14:14.910Z,10.50
2022-09-17T22:16:16.869Z,10.40
2022-09-17T22:18:18.572Z,10.30
2022-09-17T22:20:20.249Z,10.40
2022-09-17T22:22:21.928Z,10.40
2022-09-17T22:24:24.239Z,10.30
2022-09-17T22:26:29.448Z,10.30
2022-09-17T22:28:31.025Z,10.20
2022-09-17T22:30:35.031Z,10.10
2022-09-17T22:32:36.640Z,10.10
2022-09-17T22:34:38.215Z,10.00
2022-09-17T22:36:39.921Z,10.10
2022-09-17T22:38:41.834Z,10.10
2022-09-17T22:40:43.410Z,10.10
2022-09-17T22:42:45.026Z,10.10
2022-09-17T22:44:46.598Z,10.10
2022-09-17T22:46:49.614Z,10.10
2022-09-17T22:48:51.597Z,10.10
2022-09-17T22:50:53.334Z,10.00
2022-09-17T22:52:54.956Z,10.00
2022-09-17T22:54:56.545Z,10.10
2022-09-17T22:56:58.165Z,10.10
2022-09-17T22:58:59.808Z,10.10
2022-09-17T23:01:08.566Z,10.10
2022-09-17T23:03:10.145Z,10.10
2022-09-17T23:08:38.550Z,10.10
2022-09-17T23:11:30.985Z,10.10
2022-09-17T23:13:56.706Z,10.20
2022-09-17T23:16:07.453Z,10.30
2022-09-17T23:18:18.073Z,10.30
2022-09-17T23:20:29.104Z,10.40
2022-09-17T23:22:38.492Z,10.40
2022-09-17T23:24:57.961Z,10.40
2022-09-17T23:27:05.247Z,10.50
2022-09-17T23:29:37.221Z,10.40
2022-09-17T23:32:02.986Z,10.40
2022-09-17T23:34:05.881Z,10.50
2022-09-17T23:36:09.207Z,10.50
2022-09-17T23:38:11.092Z,10.50
2022-09-17T23:40:13.017Z,10.60
2022-09-17T23:42:15.609Z,10.60
2022-09-17T23:44:17.287Z,10.50
2022-09-17T23:46:20.153Z,10.60
2022-09-17T23:48:21.923Z,10.50
2022-09-17T23:50:23.665Z,10.50
2022-09-17T23:52:25.336Z,10.60
2022-09-17T23:54:27.134Z,10.60
2022-09-17T23:56:30.104Z,10.50
2022-09-17T23:58:35.224Z,10.60
